Time;durP1;ratioP1;P1;durP2;ratioP2;P2;SDS_P1;SDS_P2;PMS_P1;PMS_P2;Temp;Humidity;BMP_temperature;BMP_pressure;BME280_temperature;BME280_humidity;BME280_pressure;Samples;Min_cycle;Max_cycle;Signal;HPM_P1;HPM_P2
2020/12/24 00:02:04;;;;;;;2.63;0.75;;;10.40;99.90;;;;;;5014894;28;20037;-74
2020/12/24 00:04:30;;;;;;;2.30;0.60;;;10.50;99.90;;;;;;5014674;28;20041;-78
2020/12/24 00:06:56;;;;;;;1.63;0.47;;;10.40;99.90;;;;;;5021662;28;20391;-73
2020/12/24 00:09:23;;;;;;;1.85;0.60;;;10.40;99.90;;;;;;5014731;28;20038;-74
2020/12/24 00:11:50;;;;;;;2.65;0.80;;;10.40;99.90;;;;;;5014151;28;20037;-74
2020/12/24 00:14:16;;;;;;;2.47;0.65;;;10.40;99.90;;;;;;5014461;28;20041;-73
2020/12/24 00:16:42;;;;;;;1.55;0.40;;;10.30;99.90;;;;;;5014351;28;20037;-73
2020/12/24 00:19:08;;;;;;;3.67;0.82;;;10.30;99.90;;;;;;5013174;28;20038;-73
2020/12/24 00:21:36;;;;;;;2.97;0.88;;;10.40;99.90;;;;;;5014395;28;20030;-74
2020/12/24 00:24:02;;;;;;;2.58;0.80;;;10.30;99.90;;;;;;5014279;28;20041;-73
2020/12/24 00:26:29;;;;;;;1.65;0.82;;;10.30;99.90;;;;;;5021112;28;20034;-73
2020/12/24 00:28:55;;;;;;;2.13;0.47;;;10.30;99.90;;;;;;5028272;28;20034;-73
2020/12/24 00:31:21;;;;;;;9.88;4.20;;;10.30;99.90;;;;;;5014601;28;20037;-73
2020/12/24 00:33:47;;;;;;;3.25;1.38;;;10.20;99.90;;;;;;5028633;28;20029;-73
2020/12/24 00:36:14;;;;;;;2.08;0.65;;;10.20;99.90;;;;;;5012937;28;20054;-73
2020/12/24 00:38:40;;;;;;;2.45;0.68;;;10.20;99.90;;;;;;5013567;28;20033;-73
2020/12/24 00:41:07;;;;;;;4.85;0.77;;;10.30;99.90;;;;;;5013823;28;20038;-75
2020/12/24 00:43:34;;;;;;;8.43;2.53;;;10.50;99.90;;;;;;5045628;28;20042;-76
2020/12/24 00:46:01;;;;;;;3.58;0.75;;;10.50;99.90;;;;;;5014130;28;20045;-74
2020/12/24 00:48:27;;;;;;;1.90;0.60;;;10.60;99.90;;;;;;5013156;28;20057;-74
2020/12/24 00:50:53;;;;;;;3.90;0.90;;;10.80;99.90;;;;;;5012566;28;20034;-73
2020/12/24 00:53:20;;;;;;;5.57;0.77;;;10.80;99.90;;;;;;5013959;28;20344;-73
2020/12/24 00:55:46;;;;;;;2.45;0.80;;;10.80;99.90;;;;;;5019059;28;20490;-73
2020/12/24 00:58:12;;;;;;;6.15;0.98;;;10.80;99.90;;;;;;5012398;28;20038;-73
2020/12/24 01:00:39;;;;;;;6.50;0.98;;;10.80;99.90;;;;;;5027507;28;20041;-73
2020/12/24 01:03:05;;;;;;;5.15;0.70;;;10.80;99.90;;;;;;5013835;28;20044;-73
2020/12/24 01:05:33;;;;;;;4.53;0.75;;;10.80;99.90;;;;;;5013229;28;20037;-75
2020/12/24 01:08:00;;;;;;;7.53;0.70;;;10.70;99.90;;;;;;5014073;28;20030;-72
2020/12/24 01:10:26;;;;;;;4.55;1.25;;;10.80;99.90;;;;;;5013570;28;20046;-72
2020/12/24 01:12:53;;;;;;;3.42;0.55;;;10.80;99.90;;;;;;5012625;28;20188;-72
2020/12/24 01:15:19;;;;;;;7.05;0.93;;;10.80;99.90;;;;;;5013397;28;20045;-72
2020/12/24 01:17:45;;;;;;;5.40;0.90;;;10.80;99.90;;;;;;5012782;28;20110;-71
2020/12/24 01:20:12;;;;;;;7.50;1.20;;;10.70;99.90;;;;;;5013212;28;20398;-72
2020/12/24 01:22:39;;;;;;;5.15;1.00;;;10.70;99.90;;;;;;5013082;28;20041;-75
2020/12/24 01:25:05;;;;;;;9.02;1.23;;;10.60;99.90;;;;;;5026207;28;20069;-72
2020/12/24 01:27:32;;;;;;;6.35;0.93;;;10.60;99.90;;;;;;5013307;28;20041;-76
2020/12/24 01:29:59;;;;;;;5.03;1.05;;;10.60;99.90;;;;;;5013179;28;20514;-72
2020/12/24 01:32:25;;;;;;;4.78;0.70;;;10.70;99.90;;;;;;5012519;28;20403;-72
2020/12/24 01:34:51;;;;;;;7.13;1.48;;;10.60;99.90;;;;;;5026578;28;20523;-72
2020/12/24 01:37:17;;;;;;;6.45;1.23;;;10.70;99.90;;;;;;5013564;28;20475;-72
2020/12/24 01:39:43;;;;;;;8.55;1.50;;;10.60;99.90;;;;;;5011863;28;20037;-73
2020/12/24 01:42:10;;;;;;;5.50;1.88;;;10.50;99.90;;;;;;5012854;28;20030;-72
2020/12/24 01:44:36;;;;;;;8.25;1.05;;;10.60;99.90;;;;;;5013034;28;20046;-73
2020/12/24 01:47:03;;;;;;;3.92;0.60;;;10.60;99.90;;;;;;5021880;28;20390;-73
2020/12/24 01:49:29;;;;;;;8.50;1.40;;;10.60;99.90;;;;;;5021153;28;20061;-73
2020/12/24 01:51:56;;;;;;;6.00;1.10;;;10.60;99.90;;;;;;5011063;28;20038;-74
2020/12/24 01:54:25;;;;;;;6.47;1.27;;;10.50;99.90;;;;;;5011733;28;20042;-73
2020/12/24 01:56:53;;;;;;;5.93;0.85;;;10.40;99.90;;;;;;5011889;28;20045;-74
2020/12/24 01:59:19;;;;;;;4.50;0.80;;;10.50;99.90;;;;;;5020496;28;20036;-74
2020/12/24 02:01:49;;;;;;;3.90;0.88;;;10.40;99.90;;;;;;5012479;28;20029;-73
2020/12/24 02:04:16;;;;;;;6.20;2.00;;;10.50;99.90;;;;;;5013217;28;20030;-72
2020/12/24 02:06:44;;;;;;;8.85;1.25;;;10.60;99.90;;;;;;5012448;28;20459;-73
2020/12/24 02:09:11;;;;;;;7.25;1.40;;;10.60;99.90;;;;;;5012395;28;20030;-73
2020/12/24 02:11:40;;;;;;;4.32;1.00;;;10.60;99.90;;;;;;5012179;28;20037;-74
2020/12/24 02:14:07;;;;;;;4.55;1.00;;;10.50;99.90;;;;;;5012513;28;20041;-75
2020/12/24 02:16:34;;;;;;;5.72;1.10;;;10.40;99.90;;;;;;5012677;28;20045;-76
2020/12/24 02:19:02;;;;;;;5.97;1.00;;;10.40;99.90;;;;;;5012735;28;20463;-73
2020/12/24 02:21:28;;;;;;;4.38;0.82;;;10.30;99.90;;;;;;5012534;28;20034;-73
2020/12/24 02:23:54;;;;;;;3.35;0.65;;;10.30;99.90;;;;;;5011559;28;20113;-72
2020/12/24 02:26:21;;;;;;;5.25;0.80;;;10.10;99.90;;;;;;5011122;28;20073;-72
2020/12/24 02:28:47;;;;;;;8.63;1.25;;;10.10;99.90;;;;;;5012110;28;20030;-72
2020/12/24 02:31:13;;;;;;;12.23;1.73;;;10.00;99.90;;;;;;5012326;28;20030;-72
2020/12/24 02:33:39;;;;;;;7.07;1.08;;;9.90;99.90;;;;;;5011754;28;20034;-73
2020/12/24 02:36:06;;;;;;;6.38;1.45;;;10.00;99.90;;;;;;5012226;28;20038;-72
2020/12/24 02:38:32;;;;;;;11.65;1.50;;;9.90;99.90;;;;;;5011488;28;20030;-72
2020/12/24 02:40:58;;;;;;;7.10;1.05;;;9.80;99.90;;;;;;5012061;28;20031;-73
2020/12/24 02:43:25;;;;;;;7.25;0.98;;;9.60;99.90;;;;;;5011738;28;20042;-73
2020/12/24 02:45:51;;;;;;;12.32;1.27;;;9.80;99.90;;;;;;5011833;28;20045;-72
2020/12/24 02:48:17;;;;;;;4.80;1.00;;;9.80;99.90;;;;;;5012506;28;20034;-72
2020/12/24 02:50:43;;;;;;;3.80;1.25;;;9.70;99.90;;;;;;5011711;28;20069;-73
2020/12/24 02:53:10;;;;;;;6.75;0.82;;;9.60;99.90;;;;;;5015086;28;20030;-76
2020/12/24 02:55:36;;;;;;;6.40;1.30;;;9.50;99.90;;;;;;5015800;28;20391;-74
2020/12/24 02:58:04;;;;;;;5.75;0.80;;;9.50;99.90;;;;;;5015732;28;20045;-73
2020/12/24 03:00:31;;;;;;;4.78;0.88;;;9.50;99.90;;;;;;4998780;28;20113;-73
2020/12/24 03:02:57;;;;;;;5.50;1.05;;;9.40;99.90;;;;;;5023242;28;20038;-73
2020/12/24 03:05:24;;;;;;;8.23;0.90;;;9.30;99.90;;;;;;5026250;28;20036;-73
2020/12/24 03:07:50;;;;;;;11.90;1.70;;;9.60;99.90;;;;;;5015522;28;20042;-72
2020/12/24 03:10:17;;;;;;;7.00;1.15;;;9.50;99.90;;;;;;5015492;28;20038;-73
2020/12/24 03:12:44;;;;;;;5.35;1.05;;;9.50;99.90;;;;;;5014429;28;20034;-73
2020/12/24 03:15:11;;;;;;;3.53;0.85;;;9.40;99.90;;;;;;5014951;28;20034;-73
2020/12/24 03:17:38;;;;;;;7.22;1.70;;;9.50;99.90;;;;;;5025811;28;20472;-73
2020/12/24 03:20:07;;;;;;;8.02;1.15;;;9.30;99.90;;;;;;5027535;28;20030;-73
2020/12/24 03:22:35;;;;;;;6.93;1.10;;;9.20;99.90;;;;;;5014544;28;20472;-76
2020/12/24 03:25:01;;;;;;;6.68;1.35;;;9.20;99.90;;;;;;5015596;28;20054;-73
2020/12/24 03:27:28;;;;;;;12.38;1.75;;;9.10;99.90;;;;;;5015466;28;20026;-73
2020/12/24 03:29:55;;;;;;;9.63;1.48;;;9.10;99.90;;;;;;5014238;28;20053;-72
2020/12/24 03:32:21;;;;;;;7.18;1.70;;;9.10;99.90;;;;;;5015282;28;20037;-73
2020/12/24 03:34:48;;;;;;;6.75;1.08;;;9.00;99.90;;;;;;5014031;28;20467;-73
2020/12/24 03:37:14;;;;;;;6.20;1.33;;;9.00;99.90;;;;;;5024267;28;20045;-73
2020/12/24 03:39:40;;;;;;;8.82;0.82;;;9.10;99.90;;;;;;5030119;28;20048;-73
2020/12/24 03:42:06;;;;;;;8.40;1.15;;;9.10;99.90;;;;;;5015556;28;20026;-74
2020/12/24 03:44:33;;;;;;;7.72;1.30;;;9.00;99.90;;;;;;5026222;28;20046;-74
2020/12/24 03:46:59;;;;;;;7.90;1.05;;;8.90;99.90;;;;;;5015046;28;20049;-74
2020/12/24 03:49:25;;;;;;;9.43;1.65;;;8.80;99.90;;;;;;5015590;28;20034;-74
2020/12/24 03:51:51;;;;;;;6.30;1.48;;;8.90;99.90;;;;;;5014748;28;20379;-74
2020/12/24 03:54:18;;;;;;;6.07;1.42;;;8.80;99.90;;;;;;5014359;28;20044;-74
2020/12/24 03:56:44;;;;;;;10.43;1.17;;;8.70;99.90;;;;;;5014943;28;20034;-74
2020/12/24 03:59:10;;;;;;;8.45;1.45;;;8.60;99.90;;;;;;5014560;28;20049;-74
2020/12/24 04:01:36;;;;;;;7.65;1.50;;;8.80;99.90;;;;;;5014290;28;20033;-77
2020/12/24 04:04:03;;;;;;;5.55;1.00;;;9.00;99.90;;;;;;5013344;28;20046;-74
2020/12/24 04:06:29;;;;;;;8.38;1.73;;;9.10;99.90;;;;;;5013509;28;20060;-74
2020/12/24 04:08:55;;;;;;;10.68;1.00;;;9.00;99.90;;;;;;5013934;28;20018;-74
2020/12/24 04:11:21;;;;;;;6.25;1.35;;;9.10;99.90;;;;;;5014472;28;20037;-74
2020/12/24 04:13:48;;;;;;;5.20;0.70;;;9.00;99.90;;;;;;5013975;28;20391;-74
2020/12/24 04:16:17;;;;;;;4.28;0.70;;;8.90;99.90;;;;;;5014417;28;20030;-75
2020/12/24 04:18:43;;;;;;;4.25;1.38;;;8.90;99.90;;;;;;5014298;28;20041;-74
2020/12/24 04:21:10;;;;;;;4.93;1.13;;;8.80;99.90;;;;;;5014169;28;20034;-74
2020/12/24 04:23:36;;;;;;;6.95;1.80;;;8.80;99.90;;;;;;5014245;28;20041;-76
2020/12/24 04:26:02;;;;;;;6.43;0.90;;;8.70;99.90;;;;;;5014134;28;20475;-74
2020/12/24 04:28:28;;;;;;;4.28;0.82;;;8.60;99.90;;;;;;5012928;28;20029;-75
2020/12/24 04:30:55;;;;;;;6.15;0.70;;;8.80;99.90;;;;;;5014265;28;20633;-74
2020/12/24 04:33:22;;;;;;;4.90;0.73;;;8.70;99.90;;;;;;5014519;28;20471;-74
2020/12/24 04:35:52;;;;;;;6.38;0.90;;;8.60;99.90;;;;;;5013886;28;20375;-74
2020/12/24 04:38:19;;;;;;;9.07;1.63;;;8.60;99.90;;;;;;5013532;28;20044;-74
2020/12/24 04:40:49;;;;;;;7.80;1.42;;;8.60;99.90;;;;;;5012995;28;20038;-74
2020/12/24 04:43:17;;;;;;;5.22;0.80;;;8.60;99.90;;;;;;5013344;28;20045;-74
2020/12/24 04:45:43;;;;;;;8.25;1.77;;;8.50;99.90;;;;;;5013892;28;20479;-74
2020/12/24 04:48:09;;;;;;;11.15;1.10;;;8.40;99.90;;;;;;5014030;28;20033;-74
2020/12/24 04:50:39;;;;;;;5.05;0.85;;;8.30;99.90;;;;;;5014269;28;20038;-77
2020/12/24 04:53:07;;;;;;;5.15;0.90;;;8.30;99.90;;;;;;5014313;28;20034;-74
2020/12/24 04:55:33;;;;;;;4.55;1.33;;;8.30;99.90;;;;;;5013698;28;20049;-74
2020/12/24 04:58:00;;;;;;;6.47;1.02;;;8.30;99.90;;;;;;5013453;28;20041;-74
2020/12/24 05:00:26;;;;;;;3.05;0.80;;;8.30;99.90;;;;;;5013949;28;20557;-74
2020/12/24 05:03:06;;;;;;;3.95;0.90;;;8.30;99.90;;;;;;5014280;28;20033;-74
2020/12/24 05:05:33;;;;;;;5.50;0.73;;;8.30;99.90;;;;;;5014036;28;20042;-73
2020/12/24 05:08:07;;;;;;;6.22;1.33;;;8.30;99.90;;;;;;5013727;28;20506;-74
2020/12/24 05:10:36;;;;;;;5.75;1.40;;;8.30;99.90;;;;;;4996777;28;20822;-74
2020/12/24 05:13:20;;;;;;;7.82;0.80;;;8.30;99.90;;;;;;5013727;28;20032;-74
2020/12/24 05:15:46;;;;;;;6.25;0.88;;;8.30;99.90;;;;;;5012878;28;20471;-74
2020/12/24 05:18:18;;;;;;;3.22;0.80;;;8.40;99.90;;;;;;5013672;28;20037;-74
2020/12/24 05:20:45;;;;;;;5.35;0.98;;;8.40;99.90;;;;;;5012832;28;20476;-74
2020/12/24 05:23:16;;;;;;;6.40;0.75;;;8.50;99.90;;;;;;5013696;28;20030;-73
2020/12/24 05:25:45;;;;;;;3.90;0.82;;;8.50;99.90;;;;;;5011054;28;20053;-74
2020/12/24 05:28:24;;;;;;;6.93;1.48;;;8.50;99.90;;;;;;5014078;28;20030;-74
2020/12/24 05:30:52;;;;;;;10.32;1.17;;;8.60;99.90;;;;;;5012148;28;20038;-74
2020/12/24 05:33:29;;;;;;;5.28;0.88;;;8.60;99.90;;;;;;5013671;28;20426;-74
2020/12/24 05:36:21;;;;;;;10.05;1.55;;;8.60;99.90;;;;;;5012760;28;20038;-74
2020/12/24 05:38:49;;;;;;;9.05;1.17;;;8.50;99.90;;;;;;5012980;28;20034;-74
2020/12/24 05:41:37;;;;;;;36.35;19.02;;;8.60;99.90;;;;;;5012912;28;20049;-72
2020/12/24 05:44:12;;;;;;;25.05;9.40;;;8.50;99.90;;;;;;5010911;28;20502;-72
2020/12/24 05:46:47;;;;;;;9.25;4.05;;;8.50;99.90;;;;;;5021074;28;20045;-75
2020/12/24 05:49:18;;;;;;;10.68;1.63;;;8.50;99.90;;;;;;5013642;28;20022;-74
2020/12/24 05:51:50;;;;;;;6.88;1.27;;;8.50;99.90;;;;;;5012332;28;20082;-73
2020/12/24 05:54:17;;;;;;;5.07;0.75;;;8.50;99.90;;;;;;5012593;28;20371;-73
2020/12/24 05:56:44;;;;;;;5.05;1.15;;;8.40;99.90;;;;;;5011481;28;20046;-73
2020/12/24 05:59:19;;;;;;;5.65;0.70;;;8.40;99.90;;;;;;5012380;28;20387;-74
2020/12/24 06:02:03;;;;;;;5.80;0.85;;;8.30;99.90;;;;;;5012214;28;20030;-74
2020/12/24 06:04:44;;;;;;;7.50;2.00;;;8.30;99.90;;;;;;5012781;28;20214;-73
2020/12/24 06:07:30;;;;;;;6.50;1.20;;;8.30;99.90;;;;;;5019293;28;20033;-74
2020/12/24 06:10:07;;;;;;;4.40;1.52;;;8.20;99.90;;;;;;5012467;28;20566;-74
2020/12/24 06:12:34;;;;;;;5.75;1.27;;;8.20;99.90;;;;;;5011172;28;20053;-73
2020/12/24 06:15:02;;;;;;;5.60;1.10;;;8.20;99.90;;;;;;5012353;28;20030;-73
2020/12/24 06:17:30;;;;;;;7.35;1.65;;;8.10;99.90;;;;;;5012461;28;20467;-73
2020/12/24 06:19:57;;;;;;;5.55;1.58;;;8.10;99.90;;;;;;5011191;28;20053;-73
2020/12/24 06:22:25;;;;;;;5.30;1.58;;;8.00;99.90;;;;;;5012985;28;20041;-73
2020/12/24 06:24:57;;;;;;;5.55;1.10;;;8.00;99.90;;;;;;5010059;28;20411;-73
2020/12/24 06:27:35;;;;;;;4.32;0.80;;;8.00;99.90;;;;;;5012107;28;20049;-73
2020/12/24 06:30:07;;;;;;;5.72;1.55;;;8.00;99.90;;;;;;5022641;28;20045;-73
2020/12/24 06:32:40;;;;;;;3.58;0.80;;;8.00;99.90;;;;;;5011679;28;20034;-74
2020/12/24 06:35:07;;;;;;;4.40;1.00;;;8.00;99.90;;;;;;5012850;28;20033;-74
2020/12/24 06:37:40;;;;;;;2.88;0.73;;;8.00;99.90;;;;;;5011867;28;20034;-73
2020/12/24 06:40:09;;;;;;;3.10;0.90;;;8.00;99.90;;;;;;5011471;28;20412;-73
2020/12/24 06:42:36;;;;;;;4.55;1.05;;;8.00;99.90;;;;;;5011868;28;20026;-73
2020/12/24 06:45:07;;;;;;;8.48;1.00;;;8.00;99.90;;;;;;5010862;28;20399;-73
2020/12/24 06:47:34;;;;;;;5.15;1.25;;;7.90;99.90;;;;;;5012622;28;20048;-73
2020/12/24 06:50:00;;;;;;;1.52;0.52;;;7.90;99.90;;;;;;5012047;28;20514;-74
2020/12/24 06:52:29;;;;;;;4.25;0.82;;;7.90;99.90;;;;;;5010825;28;20037;-74
2020/12/24 06:55:14;;;;;;;2.60;0.63;;;8.00;99.90;;;;;;5010456;28;20042;-73
2020/12/24 06:57:42;;;;;;;4.22;0.60;;;7.90;99.90;;;;;;5011981;28;20136;-73
2020/12/24 07:00:23;;;;;;;2.38;0.50;;;8.00;99.90;;;;;;5012309;28;20464;-73
2020/12/24 07:02:51;;;;;;;3.53;1.08;;;7.90;99.90;;;;;;5011988;28;20538;-73
2020/12/24 07:05:45;;;;;;;2.05;0.40;;;7.90;99.90;;;;;;5022110;28;20041;-73
2020/12/24 07:08:34;;;;;;;6.15;0.93;;;7.90;99.90;;;;;;5028912;28;20029;-74
2020/12/24 07:11:02;;;;;;;2.75;0.75;;;7.80;99.90;;;;;;5012176;28;20479;-74
2020/12/24 07:13:35;;;;;;;4.20;0.60;;;7.70;99.90;;;;;;5012069;28;20034;-74
2020/12/24 07:16:06;;;;;;;4.65;0.50;;;7.80;99.90;;;;;;5011693;28;20042;-74
2020/12/24 07:18:36;;;;;;;6.15;0.90;;;7.70;99.90;;;;;;5011109;28;20394;-74
2020/12/24 07:21:04;;;;;;;4.47;0.60;;;7.70;99.90;;;;;;5018898;28;20029;-73
2020/12/24 07:23:35;;;;;;;2.70;0.70;;;7.70;99.90;;;;;;5023310;28;20029;-73
2020/12/24 07:26:02;;;;;;;;;;;7.80;99.90;;;;;;5010076;28;20053;-73
2020/12/24 07:28:33;;;;;;;5.00;0.73;;;7.70;99.90;;;;;;5012120;28;19909;-73
2020/12/24 07:31:05;;;;;;;6.18;0.60;;;7.80;99.90;;;;;;5012286;28;20041;-73
2020/12/24 07:33:32;;;;;;;3.15;0.75;;;7.80;99.90;;;;;;5027058;28;20045;-73
2020/12/24 07:35:59;;;;;;;8.63;2.03;;;7.80;99.90;;;;;;5010979;28;20037;-74
2020/12/24 07:38:30;;;;;;;27.15;12.18;;;7.90;99.90;;;;;;5013126;28;20042;-73
2020/12/24 07:40:57;;;;;;;15.63;6.68;;;7.90;99.90;;;;;;5013967;28;20395;-74
2020/12/24 07:43:26;;;;;;;15.38;6.35;;;7.90;99.90;;;;;;5027349;28;20033;-74
2020/12/24 07:45:54;;;;;;;26.15;13.32;;;7.90;99.90;;;;;;5014457;28;20057;-74
2020/12/24 07:48:23;;;;;;;26.45;10.50;;;7.90;99.90;;;;;;5014838;28;20364;-74
2020/12/24 07:50:51;;;;;;;18.08;7.53;;;7.80;99.90;;;;;;5014614;28;20038;-74
2020/12/24 07:53:19;;;;;;;19.75;6.88;;;7.80;99.90;;;;;;5014109;28;20383;-74
2020/12/24 07:55:46;;;;;;;26.83;10.10;;;7.80;99.90;;;;;;5014395;28;20033;-74
2020/12/24 07:58:13;;;;;;;29.77;12.10;;;7.80;99.90;;;;;;5015378;28;20391;-75
2020/12/24 08:00:44;;;;;;;21.88;8.70;;;7.70;99.90;;;;;;5022431;28;20041;-78
2020/12/24 08:03:13;;;;;;;6.93;2.40;;;7.70;99.90;;;;;;5014470;28;20049;-73
2020/12/24 08:05:40;;;;;;;31.67;11.50;;;7.70;99.90;;;;;;5013809;28;20041;-76
2020/12/24 08:08:06;;;;;;;95.32;38.90;;;7.70;99.90;;;;;;5013973;28;20490;-73
2020/12/24 08:10:43;;;;;;;56.90;22.58;;;7.70;99.90;;;;;;5013727;28;20038;-73
2020/12/24 08:13:10;;;;;;;8.43;2.97;;;7.70;99.90;;;;;;5015420;28;20033;-73
2020/12/24 08:15:45;;;;;;;113.05;45.63;;;7.60;99.90;;;;;;5022928;28;20097;-73
2020/12/24 08:18:14;;;;;;;13.02;4.63;;;7.60;99.90;;;;;;5014108;28;20383;-74
2020/12/24 08:20:59;;;;;;;21.75;7.28;;;7.60;99.90;;;;;;5016022;28;20034;-77
2020/12/24 08:23:51;;;;;;;19.83;5.40;;;7.60;99.90;;;;;;5022538;28;20026;-74
2020/12/24 08:26:19;;;;;;;17.55;5.80;;;7.60;99.90;;;;;;4982398;28;20117;-74
2020/12/24 08:28:54;;;;;;;10.05;3.28;;;7.60;99.90;;;;;;4969207;28;20042;-74
2020/12/24 08:31:22;;;;;;;33.85;13.55;;;7.60;99.90;;;;;;4983250;28;20042;-74
2020/12/24 08:33:51;;;;;;;14.07;5.25;;;7.60;99.90;;;;;;4982355;28;20041;-74
2020/12/24 08:36:20;;;;;;;21.48;7.63;;;7.60;99.90;;;;;;4986564;28;20516;-74
2020/12/24 08:38:47;;;;;;;27.75;10.70;;;7.60;99.90;;;;;;4982083;28;20067;-74
2020/12/24 08:41:25;;;;;;;14.07;4.32;;;7.60;99.90;;;;;;4991914;28;20049;-74
2020/12/24 08:43:54;;;;;;;22.17;8.98;;;7.60;99.90;;;;;;4986474;28;20693;-74
2020/12/24 08:46:21;;;;;;;27.55;12.85;;;7.60;99.90;;;;;;4982369;28;20081;-74
2020/12/24 08:48:48;;;;;;;22.77;10.55;;;7.70;99.90;;;;;;4973342;28;20037;-75
2020/12/24 08:51:19;;;;;;;9.05;3.47;;;7.70;99.90;;;;;;4991403;28;20042;-73
2020/12/24 08:53:46;;;;;;;19.70;8.90;;;7.70;99.90;;;;;;4990258;28;20034;-74
2020/12/24 08:56:17;;;;;;;6.97;3.35;;;7.70;99.90;;;;;;4991550;28;20404;-73
2020/12/24 08:58:51;;;;;;;7.45;2.78;;;7.70;99.90;;;;;;4990786;28;20034;-75
2020/12/24 09:01:18;;;;;;;21.92;9.98;;;7.80;99.90;;;;;;4991550;28;20492;-73
2020/12/24 09:03:45;;;;;;;20.23;9.27;;;7.80;99.90;;;;;;5004470;28;20041;-74
2020/12/24 09:06:13;;;;;;;14.68;7.97;;;7.70;99.90;;;;;;5012907;28;20056;-74
2020/12/24 09:08:50;;;;;;;15.35;7.03;;;7.70;99.90;;;;;;5013499;28;20394;-76
2020/12/24 09:11:26;;;;;;;7.63;3.22;;;7.70;99.90;;;;;;5013876;28;20045;-74
2020/12/24 09:14:01;;;;;;;21.48;11.35;;;7.70;99.90;;;;;;5012894;28;20029;-73
2020/12/24 09:16:30;;;;;;;6.65;4.22;;;7.80;99.90;;;;;;5013542;28;20040;-73
2020/12/24 09:19:05;;;;;;;16.08;6.50;;;7.70;99.90;;;;;;5013421;28;20379;-73
2020/12/24 09:21:35;;;;;;;6.88;1.40;;;7.70;99.90;;;;;;5013553;28;20041;-74
2020/12/24 09:24:11;;;;;;;7.10;2.17;;;7.80;99.90;;;;;;5012592;28;20109;-74
2020/12/24 09:26:47;;;;;;;10.15;3.35;;;7.80;99.90;;;;;;5023673;28;20037;-74
2020/12/24 09:29:15;;;;;;;10.18;4.40;;;7.90;99.90;;;;;;5011719;28;20073;-74
2020/12/24 09:31:55;;;;;;;7.47;1.73;;;8.00;99.90;;;;;;5011406;28;20050;-80
2020/12/24 09:34:21;;;;;;;6.32;2.75;;;8.10;99.90;;;;;;5027356;28;20029;-74
2020/12/24 09:36:48;;;;;;;1.98;0.73;;;8.20;99.90;;;;;;5017103;28;20390;-74
2020/12/24 09:39:15;;;;;;;2.90;1.27;;;8.20;99.90;;;;;;5021334;28;20079;-74
2020/12/24 09:41:43;;;;;;;5.28;2.25;;;8.20;99.90;;;;;;5021288;28;20033;-75
2020/12/24 09:44:10;;;;;;;4.10;1.60;;;8.30;99.90;;;;;;5023439;28;20033;-74
2020/12/24 09:46:37;;;;;;;2.55;0.80;;;8.30;99.90;;;;;;5027627;28;20046;-75
2020/12/24 09:49:04;;;;;;;5.38;1.08;;;8.30;99.90;;;;;;5012150;28;20391;-74
2020/12/24 09:51:37;;;;;;;4.57;1.55;;;8.30;99.90;;;;;;5017939;28;20054;-74
2020/12/24 09:54:05;;;;;;;1.95;0.70;;;8.30;99.90;;;;;;5020264;28;20029;-74
2020/12/24 09:56:32;;;;;;;7.25;2.45;;;8.20;99.90;;;;;;5021876;28;20036;-72
2020/12/24 09:58:59;;;;;;;2.13;0.60;;;8.20;99.90;;;;;;5020559;28;20036;-72
2020/12/24 10:01:26;;;;;;;13.15;5.97;;;8.10;99.90;;;;;;5020633;28;20037;-72
2020/12/24 10:03:52;;;;;;;4.05;1.30;;;8.10;99.90;;;;;;5020230;28;20029;-73
2020/12/24 10:06:19;;;;;;;2.40;0.73;;;8.00;99.90;;;;;;5015116;28;20372;-73
2020/12/24 10:08:45;;;;;;;3.40;1.73;;;8.00;99.90;;;;;;5017061;28;20041;-76
2020/12/24 10:11:15;;;;;;;3.20;1.38;;;8.00;99.90;;;;;;5022019;28;20378;-73
2020/12/24 10:13:42;;;;;;;6.15;1.55;;;8.00;99.90;;;;;;5017437;28;20038;-75
2020/12/24 10:16:08;;;;;;;2.40;1.00;;;8.00;99.90;;;;;;5019160;28;20029;-73
2020/12/24 10:18:35;;;;;;;2.90;0.52;;;8.10;99.90;;;;;;5021055;28;20025;-73
2020/12/24 10:21:02;;;;;;;1.20;0.70;;;8.30;99.90;;;;;;5019827;28;20054;-74
2020/12/24 10:23:28;;;;;;;6.32;2.78;;;8.40;99.90;;;;;;5023545;28;20030;-74
2020/12/24 10:25:54;;;;;;;6.43;2.40;;;8.60;99.90;;;;;;5020978;28;20068;-74
2020/12/24 10:28:20;;;;;;;3.03;1.40;;;8.80;99.90;;;;;;5026525;28;20042;-74
2020/12/24 10:30:48;;;;;;;3.22;1.70;;;8.90;99.90;;;;;;5015022;28;20038;-74
2020/12/24 10:33:14;;;;;;;2.50;1.25;;;9.00;99.90;;;;;;5021048;28;20021;-74
2020/12/24 10:35:41;;;;;;;5.40;1.42;;;9.10;99.90;;;;;;5022901;28;20038;-74
2020/12/24 10:38:07;;;;;;;6.13;2.97;;;9.20;99.90;;;;;;5011607;28;20036;-74
2020/12/24 10:40:33;;;;;;;3.22;1.10;;;9.20;99.90;;;;;;5010687;28;20049;-74
2020/12/24 10:42:59;;;;;;;3.53;1.10;;;9.20;99.90;;;;;;5010840;28;20045;-74
2020/12/24 10:45:27;;;;;;;1.50;0.50;;;9.30;99.90;;;;;;5010727;28;20407;-73
2020/12/24 10:47:53;;;;;;;1.08;0.52;;;9.40;99.90;;;;;;5011659;28;20042;-73
2020/12/24 10:50:20;;;;;;;1.73;0.77;;;9.60;99.90;;;;;;5012016;28;20045;-74
2020/12/24 10:52:46;;;;;;;2.60;1.23;;;9.70;99.90;;;;;;5011609;28;20383;-75
2020/12/24 10:55:13;;;;;;;3.75;1.88;;;9.70;99.90;;;;;;5011931;28;20037;-74
2020/12/24 10:57:39;;;;;;;3.92;1.67;;;9.60;99.90;;;;;;5014215;28;20038;-74
2020/12/24 11:00:06;;;;;;;3.20;1.20;;;9.60;99.90;;;;;;5018243;28;20085;-75
2020/12/24 11:02:33;;;;;;;2.17;0.77;;;9.70;99.90;;;;;;5015743;28;20046;-74
2020/12/24 11:05:00;;;;;;;3.50;1.83;;;9.70;99.90;;;;;;5020384;28;20398;-75
2020/12/24 11:07:26;;;;;;;4.07;2.13;;;9.60;99.90;;;;;;5011643;28;20037;-74
2020/12/24 11:09:52;;;;;;;2.03;1.17;;;9.60;99.90;;;;;;5011170;28;20034;-74
2020/12/24 11:12:19;;;;;;;1.60;0.50;;;9.40;99.90;;;;;;5012318;28;20044;-75
2020/12/24 11:14:45;;;;;;;1.85;0.63;;;9.40;99.90;;;;;;5017224;28;20030;-77
2020/12/24 11:17:11;;;;;;;3.40;1.05;;;9.40;99.90;;;;;;5033168;28;20508;-76
2020/12/24 11:19:37;;;;;;;4.90;3.05;;;9.30;99.90;;;;;;5019635;28;20041;-77
2020/12/24 11:22:03;;;;;;;2.08;1.02;;;9.20;99.90;;;;;;5014243;28;20621;-76
2020/12/24 11:24:30;;;;;;;3.45;1.42;;;9.30;99.90;;;;;;5015550;28;20050;-77
2020/12/24 11:26:56;;;;;;;1.92;0.50;;;9.30;99.90;;;;;;5014625;28;20037;-74
2020/12/24 11:29:22;;;;;;;1.27;0.65;;;9.40;99.90;;;;;;5015503;28;20038;-74
2020/12/24 11:31:48;;;;;;;2.00;0.63;;;9.30;99.90;;;;;;5014494;28;20475;-74
2020/12/24 11:34:15;;;;;;;1.63;0.57;;;9.30;99.90;;;;;;5014524;28;20045;-74
2020/12/24 11:36:44;;;;;;;1.05;0.30;;;9.40;99.90;;;;;;5015195;28;20041;-74
2020/12/24 11:39:10;;;;;;;1.27;0.35;;;9.40;99.90;;;;;;5014008;28;20052;-74
2020/12/24 11:41:36;;;;;;;2.30;0.80;;;9.40;99.90;;;;;;5014887;28;20042;-74
2020/12/24 11:44:03;;;;;;;2.92;1.25;;;9.40;99.90;;;;;;5015000;28;20030;-74
2020/12/24 11:46:29;;;;;;;1.08;0.50;;;9.50;99.90;;;;;;5027156;28;20034;-75
2020/12/24 11:48:56;;;;;;;1.83;0.63;;;9.50;99.90;;;;;;5014485;28;20387;-74
2020/12/24 11:51:23;;;;;;;0.60;0.40;;;9.50;99.90;;;;;;5015192;28;20041;-74
2020/12/24 11:53:49;;;;;;;0.75;0.20;;;9.60;99.90;;;;;;5012971;28;20061;-74
2020/12/24 11:56:20;;;;;;;1.50;0.55;;;9.50;99.90;;;;;;5013370;28;20045;-74
2020/12/24 11:58:49;;;;;;;0.30;0.20;;;9.70;99.90;;;;;;5014029;28;20042;-74
2020/12/24 12:01:20;;;;;;;0.88;0.30;;;9.70;99.90;;;;;;5014738;28;20026;-74
2020/12/24 12:03:48;;;;;;;1.58;0.60;;;9.80;99.90;;;;;;5014609;28;20387;-77
2020/12/24 12:06:15;;;;;;;1.45;0.65;;;9.80;99.90;;;;;;5015510;28;20105;-75
2020/12/24 12:08:41;;;;;;;1.40;0.40;;;9.80;99.90;;;;;;5023943;28;20474;-75
2020/12/24 12:11:08;;;;;;;2.33;0.73;;;9.80;99.90;;;;;;5025495;28;20038;-74
2020/12/24 12:13:38;;;;;;;1.83;0.65;;;9.70;99.90;;;;;;5014783;28;20034;-74
2020/12/24 12:16:07;;;;;;;0.88;0.30;;;9.70;99.90;;;;;;5014105;28;20567;-74
2020/12/24 12:18:35;;;;;;;2.08;0.90;;;9.70;99.90;;;;;;5014373;28;20034;-74
2020/12/24 12:21:03;;;;;;;0.40;0.30;;;9.70;99.90;;;;;;5014500;28;20053;-74
2020/12/24 12:23:29;;;;;;;0.60;0.40;;;9.70;99.90;;;;;;5016035;28;20034;-73
2020/12/24 12:25:56;;;;;;;1.42;0.70;;;9.60;99.90;;;;;;5014263;28;20049;-74
2020/12/24 12:28:22;;;;;;;2.13;0.73;;;9.60;99.90;;;;;;5014711;28;20034;-74
2020/12/24 12:30:48;;;;;;;0.80;0.32;;;9.60;99.90;;;;;;5013764;28;20034;-74
2020/12/24 12:33:14;;;;;;;1.65;0.73;;;9.70;99.90;;;;;;5014210;28;20037;-73
2020/12/24 12:35:41;;;;;;;1.13;0.40;;;9.70;99.90;;;;;;5014358;28;20484;-73
2020/12/24 12:38:07;;;;;;;1.27;0.30;;;9.70;99.90;;;;;;5013222;28;20045;-73
2020/12/24 12:40:33;;;;;;;0.82;0.35;;;9.70;99.90;;;;;;5014735;28;20041;-75
2020/12/24 12:42:59;;;;;;;1.08;0.60;;;9.70;99.90;;;;;;5012458;28;20046;-73
2020/12/24 12:45:26;;;;;;;2.38;0.50;;;9.70;99.90;;;;;;5013660;28;20034;-73
2020/12/24 12:47:52;;;;;;;1.92;0.30;;;9.70;99.90;;;;;;5012397;28;20468;-73
2020/12/24 12:50:18;;;;;;;0.90;0.38;;;9.90;99.90;;;;;;5029105;28;20042;-73
2020/12/24 12:52:44;;;;;;;2.35;0.52;;;10.00;99.90;;;;;;5013356;28;20026;-75
2020/12/24 12:55:11;;;;;;;3.47;0.70;;;9.90;99.90;;;;;;5014175;28;20877;-73
2020/12/24 12:57:37;;;;;;;1.92;0.90;;;10.00;99.90;;;;;;5018424;28;20037;-74
2020/12/24 13:00:08;;;;;;;2.80;0.85;;;10.10;99.90;;;;;;5024498;28;20456;-73